createdAt,value
2022-11-04T00:01:56.406Z,14.40
2022-11-04T00:04:25.803Z,14.50
2022-11-04T00:06:53.591Z,14.40
2022-11-04T00:09:22.833Z,14.40
2022-11-04T00:12:08.984Z,14.50
2022-11-04T00:14:36.657Z,14.40
2022-11-04T00:17:20.318Z,14.40
2022-11-04T00:20:06.964Z,14.40
2022-11-04T00:22:52.650Z,14.40
2022-11-04T00:25:38.184Z,14.40
2022-11-04T00:28:24.619Z,14.40
2022-11-04T00:31:19.249Z,14.40
2022-11-04T00:33:50.357Z,14.40
2022-11-04T00:36:17.237Z,14.30
2022-11-04T00:38:44.428Z,14.30
2022-11-04T00:41:27.106Z,14.30
2022-11-04T00:44:05.337Z,14.30
2022-11-04T00:46:33.648Z,14.20
2022-11-04T00:49:00.655Z,14.10
2022-11-04T00:51:27.643Z,14.00
2022-11-04T00:53:54.810Z,14.00
2022-11-04T00:56:21.611Z,14.00
2022-11-04T00:58:50.161Z,13.90
2022-11-04T01:01:18.203Z,13.90
2022-11-04T01:03:50.615Z,13.90
2022-11-04T01:06:18.395Z,13.90
2022-11-04T01:08:45.695Z,13.90
2022-11-04T01:11:16.638Z,13.90
2022-11-04T01:13:43.546Z,13.80
2022-11-04T01:16:11.823Z,13.80
2022-11-04T01:18:39.862Z,13.80
2022-11-04T01:21:08.624Z,13.70
2022-11-04T01:23:35.846Z,13.80
2022-11-04T01:26:09.566Z,13.80
2022-11-04T01:28:36.488Z,13.70
2022-11-04T01:31:08.136Z,13.70
2022-11-04T01:33:35.386Z,13.70
2022-11-04T01:36:02.763Z,13.70
2022-11-04T01:38:29.777Z,13.60
2022-11-04T01:40:56.641Z,13.60
2022-11-04T01:43:24.231Z,13.60
2022-11-04T01:45:58.821Z,13.60
2022-11-04T01:48:31.731Z,13.60
2022-11-04T01:50:59.766Z,13.60
2022-11-04T01:53:30.544Z,13.60
2022-11-04T01:56:00.391Z,13.50
2022-11-04T01:58:31.500Z,13.50
2022-11-04T02:00:58.434Z,13.50
2022-11-04T02:03:44.117Z,13.50
2022-11-04T02:06:11.572Z,13.40
2022-11-04T02:08:39.553Z,13.50
2022-11-04T02:11:06.556Z,13.40
2022-11-04T02:13:35.974Z,13.40
2022-11-04T02:16:26.655Z,13.40
2022-11-04T02:19:14.251Z,13.30
2022-11-04T02:21:43.804Z,13.30
2022-11-04T02:24:48.733Z,13.20
2022-11-04T02:27:33.516Z,13.10
2022-11-04T02:30:08.843Z,13.10
2022-11-04T02:32:56.894Z,13.10
2022-11-04T02:35:23.602Z,13.20
2022-11-04T02:38:14.614Z,13.10
2022-11-04T02:41:19.848Z,13.20
2022-11-04T02:44:01.553Z,13.10
2022-11-04T02:46:34.416Z,13.10
2022-11-04T02:49:25.694Z,13.10
2022-11-04T02:52:08.483Z,13.10
2022-11-04T02:54:40.373Z,13.00
2022-11-04T02:57:12.110Z,12.90
2022-11-04T03:00:00.549Z,12.90
2022-11-04T03:02:33.792Z,12.90
2022-11-04T03:05:03.661Z,12.80
2022-11-04T03:07:34.957Z,12.90
2022-11-04T03:10:07.129Z,12.80
2022-11-04T03:12:50.301Z,12.80
2022-11-04T03:15:27.031Z,12.80
2022-11-04T03:18:07.561Z,12.80
2022-11-04T03:20:38.641Z,12.80
2022-11-04T03:23:05.713Z,12.80
2022-11-04T03:25:45.422Z,12.80
2022-11-04T03:28:22.681Z,12.70
2022-11-04T03:30:53.987Z,12.70
2022-11-04T03:33:33.767Z,12.60
2022-11-04T03:36:00.619Z,12.60
2022-11-04T03:38:27.364Z,12.50
2022-11-04T03:40:54.195Z,12.50
2022-11-04T03:43:27.857Z,12.50
2022-11-04T03:45:55.674Z,12.50
2022-11-04T03:48:23.895Z,12.50
2022-11-04T03:50:51.310Z,12.50
2022-11-04T03:53:22.606Z,12.60
2022-11-04T03:56:07.832Z,12.60
2022-11-04T03:58:58.399Z,12.60
2022-11-04T04:01:40.505Z,12.60
2022-11-04T04:04:31.079Z,12.60
2022-11-04T04:07:20.433Z,12.60
2022-11-04T04:10:04.278Z,12.60
2022-11-04T04:12:38.479Z,12.60
2022-11-04T04:15:18.622Z,12.60
2022-11-04T04:17:52.621Z,12.60
2022-11-04T04:20:22.854Z,12.60
2022-11-04T04:22:55.565Z,12.50
2022-11-04T04:25:44.573Z,12.50
2022-11-04T04:28:14.907Z,12.50
2022-11-04T04:30:43.712Z,12.50
2022-11-04T04:33:15.070Z,12.50
2022-11-04T04:35:49.635Z,12.50
2022-11-04T04:38:44.949Z,12.40
2022-11-04T04:41:50.749Z,12.40
2022-11-04T04:44:47.164Z,12.40
2022-11-04T04:47:24.167Z,12.40
2022-11-04T04:49:56.161Z,12.40
2022-11-04T04:52:25.710Z,12.30
2022-11-04T04:54:52.447Z,12.30
2022-11-04T04:57:19.274Z,12.40
2022-11-04T04:59:46.039Z,12.30
2022-11-04T05:02:12.876Z,12.30
2022-11-04T05:04:39.657Z,12.30
2022-11-04T05:07:08.166Z,12.30
2022-11-04T05:09:34.936Z,12.30
2022-11-04T05:12:02.106Z,12.30
2022-11-04T05:14:29.986Z,12.30
2022-11-04T05:16:56.736Z,12.30
2022-11-04T05:19:23.485Z,12.30
2022-11-04T05:21:50.296Z,12.30
2022-11-04T05:24:17.098Z,12.30
2022-11-04T05:26:43.825Z,12.30
2022-11-04T05:29:10.871Z,12.30
2022-11-04T05:31:37.796Z,12.20
2022-11-04T05:34:05.934Z,12.20
2022-11-04T05:36:33.393Z,12.20
2022-11-04T05:39:00.158Z,12.10
2022-11-04T05:41:27.263Z,12.10
2022-11-04T05:43:55.674Z,12.00
2022-11-04T05:46:23.096Z,12.00
2022-11-04T05:48:50.236Z,12.00
2022-11-04T05:51:19.632Z,12.00
2022-11-04T05:53:46.833Z,11.90
2022-11-04T05:56:13.949Z,11.90
2022-11-04T05:58:40.663Z,11.90
2022-11-04T06:01:23.435Z,11.80
2022-11-04T06:03:51.134Z,11.70
2022-11-04T06:06:18.068Z,11.60
2022-11-04T06:08:45.407Z,11.60
2022-11-04T06:11:12.489Z,11.60
2022-11-04T06:13:39.239Z,11.50
2022-11-04T06:16:06.171Z,11.50
2022-11-04T06:18:32.924Z,11.50
2022-11-04T06:21:14.814Z,11.50
2022-11-04T06:23:42.626Z,11.50
2022-11-04T06:26:10.605Z,11.50
2022-11-04T06:28:37.559Z,11.30
2022-11-04T06:31:06.642Z,11.50
2022-11-04T06:33:36.709Z,11.50
2022-11-04T06:36:05.708Z,11.50
2022-11-04T06:38:33.991Z,11.50
2022-11-04T06:41:00.888Z,11.50
2022-11-04T06:43:27.704Z,11.50
2022-11-04T06:46:00.182Z,11.50
2022-11-04T06:48:27.936Z,11.40
2022-11-04T06:50:54.657Z,11.50
2022-11-04T06:53:21.317Z,11.40
2022-11-04T06:55:48.160Z,11.50
2022-11-04T06:58:14.907Z,11.50
2022-11-04T07:00:41.618Z,11.50
2022-11-04T07:03:10.612Z,11.50
2022-11-04T07:05:37.628Z,11.50
2022-11-04T07:08:04.610Z,11.40
2022-11-04T07:10:31.339Z,11.40
2022-11-04T07:12:58.001Z,11.50
2022-11-04T07:15:27.580Z,11.50
2022-11-04T07:17:55.626Z,11.50
2022-11-04T07:20:22.815Z,11.50
2022-11-04T07:22:53.738Z,11.50
2022-11-04T07:25:20.820Z,11.50
2022-11-04T07:27:48.682Z,11.50
2022-11-04T07:30:15.538Z,11.50
2022-11-04T07:32:42.267Z,11.60
2022-11-04T07:35:09.460Z,11.60
2022-11-04T07:37:36.247Z,11.70
2022-11-04T07:40:04.800Z,11.70
2022-11-04T07:42:32.721Z,11.70
2022-11-04T07:45:05.707Z,11.60
2022-11-04T07:47:32.695Z,11.60
2022-11-04T07:49:59.817Z,11.60
2022-11-04T07:52:27.810Z,11.70
2022-11-04T07:54:54.654Z,11.70
2022-11-04T07:57:21.763Z,11.80
2022-11-04T07:59:48.552Z,11.80
2022-11-04T08:02:18.514Z,11.90
2022-11-04T08:04:47.746Z,11.90
2022-11-04T08:07:14.457Z,12.00
2022-11-04T08:09:41.391Z,12.10
2022-11-04T08:12:08.160Z,12.00
2022-11-04T08:14:36.489Z,12.10
2022-11-04T08:17:03.842Z,12.20
2022-11-04T08:19:31.385Z,12.30
2022-11-04T08:21:59.104Z,12.30
2022-11-04T08:24:25.820Z,12.30
2022-11-04T08:26:52.577Z,12.30
2022-11-04T08:29:19.409Z,12.30
2022-11-04T08:31:46.153Z,12.20
2022-11-04T08:34:14.682Z,12.30
2022-11-04T08:36:41.564Z,12.40
2022-11-04T08:39:11.137Z,12.40
2022-11-04T08:41:41.370Z,12.40
2022-11-04T08:44:08.921Z,12.60
2022-11-04T08:46:38.854Z,12.60
2022-11-04T08:49:09.933Z,12.70
2022-11-04T08:51:41.006Z,12.80
2022-11-04T08:54:07.881Z,12.70
2022-11-04T08:56:37.694Z,12.60
2022-11-04T08:59:06.137Z,12.60
2022-11-04T09:01:36.422Z,12.60
2022-11-04T09:04:04.945Z,12.70
2022-11-04T09:06:36.049Z,12.70
2022-11-04T09:09:05.299Z,12.70
2022-11-04T09:11:34.012Z,12.80
2022-11-04T09:14:02.189Z,12.80
2022-11-04T09:16:33.042Z,12.80
2022-11-04T09:19:01.941Z,12.80
2022-11-04T09:21:29.244Z,12.90
2022-11-04T09:23:56.239Z,12.90
2022-11-04T09:26:24.920Z,12.90
2022-11-04T09:28:56.205Z,13.00
2022-11-04T09:31:23.847Z,13.00
2022-11-04T09:33:51.045Z,13.10
2022-11-04T09:36:18.227Z,13.20
2022-11-04T09:38:45.146Z,13.20
2022-11-04T09:41:38.614Z,13.30
2022-11-04T09:44:29.150Z,13.30
2022-11-04T09:47:01.721Z,13.40
2022-11-04T09:49:39.142Z,13.40
2022-11-04T09:52:18.983Z,13.40
2022-11-04T09:54:54.787Z,13.50
2022-11-04T09:57:22.148Z,13.50
2022-11-04T09:59:49.399Z,13.50
2022-11-04T10:02:40.510Z,13.50
2022-11-04T10:05:33.880Z,13.60
2022-11-04T10:08:19.904Z,13.60
2022-11-04T10:10:59.672Z,13.70
2022-11-04T10:14:01.495Z,13.90
2022-11-04T10:16:31.510Z,13.80
2022-11-04T10:19:26.244Z,13.80
2022-11-04T10:21:58.660Z,13.80
2022-11-04T10:24:42.025Z,13.80
2022-11-04T10:27:21.675Z,13.80
2022-11-04T10:29:53.366Z,13.90
2022-11-04T10:32:29.831Z,13.90
2022-11-04T10:35:02.069Z,14.00
2022-11-04T10:37:29.234Z,14.10
2022-11-04T10:40:14.800Z,14.10
2022-11-04T10:42:41.602Z,14.20
2022-11-04T10:45:12.836Z,14.20
2022-11-04T10:48:01.111Z,14.30
2022-11-04T10:50:40.181Z,14.40
2022-11-04T10:53:20.657Z,14.50
2022-11-04T10:55:52.279Z,14.60
2022-11-04T10:58:24.682Z,14.70
2022-11-04T11:03:34.583Z,14.90
2022-11-04T11:06:12.569Z,15.00
2022-11-04T11:08:39.661Z,15.00
2022-11-04T11:11:09.858Z,15.10
2022-11-04T11:13:46.569Z,15.10
2022-11-04T11:16:27.560Z,15.10
2022-11-04T11:19:14.324Z,15.10
2022-11-04T11:21:46.055Z,15.10
2022-11-04T11:24:31.088Z,15.10
2022-11-04T11:27:03.980Z,15.10
2022-11-04T11:29:42.318Z,15.10
2022-11-04T11:32:35.998Z,15.20
2022-11-04T11:35:07.764Z,15.20
2022-11-04T11:37:39.859Z,15.20
2022-11-04T11:40:07.402Z,15.10
2022-11-04T11:42:35.032Z,15.10
2022-11-04T11:45:05.167Z,15.10
2022-11-04T11:47:31.983Z,15.00
2022-11-04T11:50:13.846Z,15.00
2022-11-04T11:52:42.784Z,14.90
2022-11-04T11:55:16.089Z,14.90
2022-11-04T12:01:14.212Z,14.80
2022-11-04T12:09:52.427Z,14.80
2022-11-04T12:12:23.733Z,14.80
2022-11-04T12:22:32.874Z,14.80
2022-11-04T12:25:46.396Z,14.90
2022-11-04T12:28:41.973Z,14.90
2022-11-04T12:31:18.125Z,14.90
2022-11-04T12:34:09.189Z,15.00
2022-11-04T12:37:04.311Z,15.00
2022-11-04T12:39:43.201Z,15.10
2022-11-04T12:42:41.661Z,15.10
2022-11-04T12:45:42.228Z,15.20
2022-11-04T12:48:35.852Z,15.20
2022-11-04T12:51:16.312Z,15.10
2022-11-04T12:54:04.588Z,15.10
2022-11-04T12:56:39.522Z,15.00
2022-11-04T12:59:18.316Z,15.00
2022-11-04T13:01:57.180Z,14.90
2022-11-04T13:04:29.825Z,14.80
2022-11-04T13:07:07.756Z,14.70
2022-11-04T13:09:37.728Z,14.70
2022-11-04T13:12:31.886Z,14.70
2022-11-04T13:15:07.235Z,14.80
2022-11-04T13:17:39.271Z,14.80
2022-11-04T13:20:16.105Z,14.80
2022-11-04T13:22:46.382Z,14.90
2022-11-04T13:25:29.129Z,14.80
2022-11-04T13:27:56.660Z,14.90
2022-11-04T13:30:40.210Z,14.90
2022-11-04T13:33:32.481Z,14.90
2022-11-04T13:36:15.269Z,14.90
2022-11-04T13:38:53.434Z,14.90
2022-11-04T13:41:39.129Z,14.90
2022-11-04T13:44:30.028Z,14.90
2022-11-04T13:47:04.481Z,14.90
2022-11-04T13:49:34.277Z,15.00
2022-11-04T13:52:14.649Z,14.90
2022-11-04T13:54:58.128Z,14.90
2022-11-04T13:57:30.367Z,14.80
2022-11-04T14:00:22.688Z,14.80
2022-11-04T14:02:50.870Z,14.80
2022-11-04T14:05:34.596Z,14.80
2022-11-04T14:08:01.632Z,14.80
2022-11-04T14:10:43.807Z,14.80
2022-11-04T14:13:37.825Z,14.80
2022-11-04T14:16:17.847Z,14.70
2022-11-04T14:18:47.244Z,14.70
2022-11-04T14:21:19.932Z,14.70
2022-11-04T14:23:50.920Z,14.70
2022-11-04T14:26:21.937Z,14.80
2022-11-04T14:29:17.993Z,14.80
2022-11-04T14:31:51.517Z,14.80
2022-11-04T14:34:31.048Z,14.80
2022-11-04T14:37:00.621Z,14.80
2022-11-04T14:39:32.648Z,14.80
2022-11-04T14:42:02.459Z,14.80
2022-11-04T14:44:38.881Z,14.70
2022-11-04T14:47:26.118Z,14.80
2022-11-04T14:50:17.036Z,14.80
2022-11-04T14:52:44.015Z,14.80
2022-11-04T14:55:13.786Z,14.80
2022-11-04T14:57:41.845Z,14.70
2022-11-04T15:00:27.561Z,14.70
2022-11-04T15:03:41.021Z,14.70
2022-11-04T15:06:04.718Z,14.70
2022-11-04T15:08:40.576Z,14.60
2022-11-04T15:11:44.357Z,14.60
2022-11-04T15:14:25.860Z,14.60
2022-11-04T15:16:56.452Z,14.60
2022-11-04T15:19:34.874Z,14.50
2022-11-04T15:22:06.302Z,14.50
2022-11-04T15:24:35.069Z,14.50
2022-11-04T15:27:06.824Z,14.50
2022-11-04T15:29:33.966Z,14.50
2022-11-04T15:32:05.433Z,14.40
2022-11-04T15:34:34.224Z,14.50
2022-11-04T15:37:05.995Z,14.50
2022-11-04T15:39:44.716Z,14.50
2022-11-04T15:42:40.094Z,14.50
2022-11-04T15:45:35.452Z,14.40
2022-11-04T15:48:22.447Z,14.50
2022-11-04T15:51:21.844Z,14.50
2022-11-04T15:54:21.529Z,14.50
2022-11-04T15:56:55.112Z,14.50
2022-11-04T15:59:48.097Z,14.50
2022-11-04T16:02:31.828Z,14.50
2022-11-04T16:05:02.713Z,14.40
2022-11-04T16:07:41.235Z,14.40
2022-11-04T16:10:33.972Z,14.40
2022-11-04T16:13:01.840Z,14.40
2022-11-04T16:15:45.211Z,14.50
2022-11-04T16:18:34.315Z,14.40
2022-11-04T16:21:09.472Z,14.50
2022-11-04T16:23:45.779Z,14.50
2022-11-04T16:26:14.150Z,14.50
2022-11-04T16:28:41.687Z,14.50
2022-11-04T16:31:33.367Z,14.50
2022-11-04T16:34:00.320Z,14.60
2022-11-04T16:36:34.100Z,14.60
2022-11-04T16:39:08.659Z,14.60
2022-11-04T16:41:40.471Z,14.70
2022-11-04T16:44:18.325Z,14.80
2022-11-04T16:46:46.647Z,14.80
2022-11-04T16:49:19.216Z,14.90
2022-11-04T16:51:48.286Z,14.90
2022-11-04T16:54:15.198Z,14.90
2022-11-04T16:56:42.138Z,14.90
2022-11-04T16:59:14.169Z,14.90
2022-11-04T17:01:42.086Z,15.00
2022-11-04T17:04:09.423Z,15.00
2022-11-04T17:06:36.628Z,15.00
2022-11-04T17:09:04.278Z,15.00
2022-11-04T17:11:31.689Z,15.00
2022-11-04T17:13:58.351Z,15.10
2022-11-04T17:16:25.280Z,15.00
2022-11-04T17:18:52.383Z,15.00
2022-11-04T17:21:20.569Z,15.10
2022-11-04T17:23:47.836Z,15.10
2022-11-04T17:26:14.976Z,15.10
2022-11-04T17:28:42.159Z,15.10
2022-11-04T17:31:18.662Z,15.10
2022-11-04T17:33:45.335Z,15.10
2022-11-04T17:36:19.107Z,15.10
2022-11-04T17:38:47.171Z,15.10
2022-11-04T17:41:32.351Z,15.10
2022-11-04T17:44:01.939Z,15.20
2022-11-04T17:46:39.430Z,15.20
2022-11-04T17:49:18.810Z,15.20
2022-11-04T17:51:54.012Z,15.20
2022-11-04T17:54:22.163Z,15.20
2022-11-04T17:56:49.370Z,15.20
2022-11-04T17:59:17.490Z,15.20
2022-11-04T18:01:45.052Z,15.20
2022-11-04T18:04:18.710Z,15.20
2022-11-04T18:06:45.723Z,15.20
2022-11-04T18:09:15.025Z,15.20
2022-11-04T18:12:02.710Z,15.30
2022-11-04T18:14:29.853Z,15.30
2022-11-04T18:16:56.538Z,15.40
2022-11-04T18:19:26.409Z,15.40
2022-11-04T18:21:53.185Z,15.30
2022-11-04T18:24:20.172Z,15.40
2022-11-04T18:26:47.338Z,15.40
2022-11-04T18:29:14.100Z,15.30
2022-11-04T18:31:46.190Z,15.30
2022-11-04T18:34:17.744Z,15.30
2022-11-04T18:36:44.978Z,15.30
2022-11-04T18:39:14.827Z,15.30
2022-11-04T18:41:42.168Z,15.30
2022-11-04T18:44:13.967Z,15.20
2022-11-04T18:46:40.690Z,15.20
2022-11-04T18:49:07.428Z,15.20
2022-11-04T18:51:34.156Z,15.10
2022-11-04T18:54:05.016Z,15.10
2022-11-04T18:56:31.725Z,15.10
2022-11-04T18:58:58.624Z,15.00
2022-11-04T19:01:28.851Z,15.00
2022-11-04T19:03:56.640Z,14.90
2022-11-04T19:06:26.993Z,14.90
2022-11-04T19:09:01.776Z,14.90
2022-11-04T19:11:34.504Z,14.90
2022-11-04T19:14:09.196Z,14.80
2022-11-04T19:16:37.512Z,14.80
2022-11-04T19:19:07.666Z,14.80
2022-11-04T19:21:35.514Z,14.70
2022-11-04T19:24:05.839Z,14.70
2022-11-04T19:26:35.442Z,14.70
2022-11-04T19:29:05.080Z,14.60
2022-11-04T19:31:32.617Z,14.60
2022-11-04T19:34:07.334Z,14.60
2022-11-04T19:36:35.525Z,14.50
2022-11-04T19:39:02.231Z,14.60
2022-11-04T19:41:49.891Z,14.50
2022-11-04T19:44:22.166Z,14.50
2022-11-04T19:46:49.426Z,14.50
2022-11-04T19:49:16.880Z,13.60
2022-11-04T19:51:45.193Z,14.40
2022-11-04T19:54:12.672Z,14.50
2022-11-04T19:56:39.854Z,14.40
2022-11-04T19:59:07.925Z,14.40
2022-11-04T20:01:35.790Z,14.40
2022-11-04T20:04:04.242Z,14.40
2022-11-04T20:06:32.441Z,14.40
2022-11-04T20:09:05.754Z,14.40
2022-11-04T20:11:33.556Z,14.30
2022-11-04T20:14:07.448Z,14.30
2022-11-04T20:16:39.511Z,14.30
2022-11-04T20:19:06.489Z,14.30
2022-11-04T20:21:36.084Z,14.30
2022-11-04T20:24:06.282Z,14.30
2022-11-04T20:26:34.821Z,14.30
2022-11-04T20:29:02.487Z,14.30
2022-11-04T20:31:32.292Z,14.30
2022-11-04T20:34:00.472Z,14.30
2022-11-04T20:36:28.713Z,14.30
2022-11-04T20:38:59.979Z,14.30
2022-11-04T20:41:26.839Z,14.30
2022-11-04T20:43:55.901Z,14.30
2022-11-04T20:46:28.769Z,14.30
2022-11-04T20:48:57.338Z,14.30
2022-11-04T20:51:31.235Z,14.30
2022-11-04T20:54:03.109Z,14.30
2022-11-04T20:56:35.914Z,14.30
2022-11-04T20:59:04.354Z,14.30
2022-11-04T21:01:34.231Z,14.30
2022-11-04T21:04:06.641Z,14.30
2022-11-04T21:06:35.989Z,14.30
2022-11-04T21:09:02.714Z,14.30
2022-11-04T21:11:32.096Z,14.30
2022-11-04T21:13:59.061Z,14.30
2022-11-04T21:16:28.179Z,14.30
2022-11-04T21:18:55.362Z,14.30
2022-11-04T21:21:23.096Z,14.20
2022-11-04T21:23:51.346Z,14.20
2022-11-04T21:26:23.888Z,14.20
2022-11-04T21:28:58.739Z,14.20
2022-11-04T21:31:26.154Z,14.30
2022-11-04T21:33:53.040Z,14.20
2022-11-04T21:36:20.778Z,14.20
2022-11-04T21:38:47.504Z,14.20
2022-11-04T21:41:23.185Z,14.20
2022-11-04T21:43:57.621Z,14.20
2022-11-04T21:46:25.665Z,14.20
2022-11-04T21:48:52.693Z,14.20
2022-11-04T21:51:22.018Z,14.20
2022-11-04T21:53:48.966Z,14.20
2022-11-04T21:56:18.690Z,14.20
2022-11-04T21:58:46.149Z,14.20
2022-11-04T22:01:19.284Z,14.20
2022-11-04T22:03:50.921Z,14.20
2022-11-04T22:06:17.763Z,14.20
2022-11-04T22:08:49.323Z,14.20
2022-11-04T22:11:22.781Z,14.20
2022-11-04T22:13:53.717Z,14.20
2022-11-04T22:16:23.119Z,14.20
2022-11-04T22:18:54.518Z,14.20
2022-11-04T22:21:23.517Z,14.20
2022-11-04T22:23:50.718Z,14.10
2022-11-04T22:26:25.749Z,14.10
2022-11-04T22:28:53.841Z,14.10
2022-11-04T22:31:23.568Z,14.10
2022-11-04T22:33:51.599Z,14.10
2022-11-04T22:36:18.710Z,14.10
2022-11-04T22:38:45.785Z,14.20
2022-11-04T22:41:17.464Z,14.10
2022-11-04T22:43:44.284Z,14.10
2022-11-04T22:46:14.277Z,14.10
2022-11-04T22:48:41.414Z,14.10
2022-11-04T22:51:09.348Z,14.10
2022-11-04T22:53:36.827Z,14.10
2022-11-04T22:56:05.270Z,14.10
2022-11-04T22:58:32.260Z,14.10
2022-11-04T23:01:02.309Z,14.10
2022-11-04T23:03:29.648Z,14.10
2022-11-04T23:05:59.160Z,14.00
2022-11-04T23:08:27.582Z,14.00
2022-11-04T23:11:22.706Z,13.90
2022-11-04T23:14:19.803Z,14.00
2022-11-04T23:17:08.176Z,13.90
2022-11-04T23:19:35.457Z,14.00
2022-11-04T23:22:20.844Z,13.90
2022-11-04T23:25:06.030Z,14.00
2022-11-04T23:28:01.689Z,14.00
2022-11-04T23:30:32.399Z,13.90
2022-11-04T23:33:01.785Z,13.90
2022-11-04T23:35:58.797Z,14.00
2022-11-04T23:38:26.064Z,13.90
2022-11-04T23:41:15.976Z,13.90
2022-11-04T23:43:42.884Z,13.90
2022-11-04T23:46:29.187Z,13.90
2022-11-04T23:49:14.594Z,13.90
2022-11-04T23:52:00.309Z,13.90
2022-11-04T23:54:45.789Z,13.90
2022-11-04T23:57:36.138Z,13.90
